ADDS METAR Data INFO
IDs: Format: Raw Decoded Include TAF

Data at: 1131 UTC 29 May 2017

METAR for:PAAK (Atka Arpt, AK, US)
Text:PAAK 291116Z 13011KT 10SM BKN039 OVC060 06/02 A2956 RMK AO1
Temperature: 6.0°C ( 43°F)
Dewpoint: 2.0°C ( 36°F) [RH = 75%]
Pressure (altimeter):29.56 inches Hg (1001.1 mb)
Winds:from the SE (130 degrees) at 13 MPH (11 knots; 5.7 m/s)
Visibility:10 or more sm (16+ km)
Ceiling:3900 feet AGL
Clouds: broken clouds at 3900 feet AGL, overcast cloud deck at 6000 feet AGL
Text:PAAK 291056Z 13011KT 10SM FEW031 OVC041 06/02 A2957 RMK AO1
Temperature: 6.0°C ( 43°F)
Dewpoint: 2.0°C ( 36°F) [RH = 75%]
Pressure (altimeter):29.57 inches Hg (1001.4 mb)
Winds:from the SE (130 degrees) at 13 MPH (11 knots; 5.7 m/s)
Visibility:10 or more sm (16+ km)
Ceiling:4100 feet AGL
Clouds: few clouds at 3100 feet AGL, overcast cloud deck at 4100 feet AGL
Text:PAAK 291036Z 13012KT 10SM FEW033 BKN047 OVC065 06/02 A2957 RMK AO1
Temperature: 6.0°C ( 43°F)
Dewpoint: 2.0°C ( 36°F) [RH = 75%]
Pressure (altimeter):29.57 inches Hg (1001.4 mb)
Winds:from the SE (130 degrees) at 14 MPH (12 knots; 6.2 m/s)
Visibility:10 or more sm (16+ km)
Ceiling:4700 feet AGL
Clouds: few clouds at 3300 feet AGL, broken clouds at 4700 feet AGL, overcast cloud deck at 6500 feet AGL
Text:PAAK 291016Z 13012KT 10SM SCT047 SCT055 OVC065 06/02 A2957 RMK AO1
Temperature: 6.0°C ( 43°F)
Dewpoint: 2.0°C ( 36°F) [RH = 75%]
Pressure (altimeter):29.57 inches Hg (1001.4 mb)
Winds:from the SE (130 degrees) at 14 MPH (12 knots; 6.2 m/s)
Visibility:10 or more sm (16+ km)
Ceiling:6500 feet AGL
Clouds: scattered clouds at 4700 feet AGL, scattered clouds at 5500 feet AGL, overcast cloud deck at 6500 feet AGL
Text:PAAK 290956Z 12012KT 10SM FEW022 SCT032 BKN049 06/02 A2957 RMK AO1
Temperature: 6.0°C ( 43°F)
Dewpoint: 2.0°C ( 36°F) [RH = 75%]
Pressure (altimeter):29.57 inches Hg (1001.4 mb)
Winds:from the ESE (120 degrees) at 14 MPH (12 knots; 6.2 m/s)
Visibility:10 or more sm (16+ km)
Ceiling:4900 feet AGL
Clouds: few clouds at 2200 feet AGL, scattered clouds at 3200 feet AGL, broken clouds at 4900 feet AGL
Text:PAAK 290936Z 12013KT 10SM SCT022 BKN030 OVC045 06/02 A2958 RMK AO1
Temperature: 6.0°C ( 43°F)
Dewpoint: 2.0°C ( 36°F) [RH = 75%]
Pressure (altimeter):29.58 inches Hg (1001.8 mb)
Winds:from the ESE (120 degrees) at 15 MPH (13 knots; 6.7 m/s)
Visibility:10 or more sm (16+ km)
Ceiling:3000 feet AGL
Clouds: scattered clouds at 2200 feet AGL, broken clouds at 3000 feet AGL, overcast cloud deck at 4500 feet AGL
Text:PAAK 290916Z 13012KT 10SM FEW025 BKN034 OVC065 06/02 A2958 RMK AO1
Temperature: 6.0°C ( 43°F)
Dewpoint: 2.0°C ( 36°F) [RH = 75%]
Pressure (altimeter):29.58 inches Hg (1001.8 mb)
Winds:from the SE (130 degrees) at 14 MPH (12 knots; 6.2 m/s)
Visibility:10 or more sm (16+ km)
Ceiling:3400 feet AGL
Clouds: few clouds at 2500 feet AGL, broken clouds at 3400 feet AGL, overcast cloud deck at 6500 feet AGL
Text:PAAK 290856Z 12012KT 10SM FEW020 SCT036 OVC065 06/02 A2957 RMK AO1 54000
Temperature: 6.0°C ( 43°F)
Dewpoint: 2.0°C ( 36°F) [RH = 75%]
Pressure (altimeter):29.57 inches Hg (1001.4 mb)
Winds:from the ESE (120 degrees) at 14 MPH (12 knots; 6.2 m/s)
Visibility:10 or more sm (16+ km)
Ceiling:6500 feet AGL
Clouds: few clouds at 2000 feet AGL, scattered clouds at 3600 feet AGL, overcast cloud deck at 6500 feet AGL
Text:PAAK 290836Z 12012KT 10SM FEW026 SCT050 OVC070 06/02 A2958 RMK AO1
Temperature: 6.0°C ( 43°F)
Dewpoint: 2.0°C ( 36°F) [RH = 75%]
Pressure (altimeter):29.58 inches Hg (1001.8 mb)
Winds:from the ESE (120 degrees) at 14 MPH (12 knots; 6.2 m/s)
Visibility:10 or more sm (16+ km)
Ceiling:7000 feet AGL
Clouds: few clouds at 2600 feet AGL, scattered clouds at 5000 feet AGL, overcast cloud deck at 7000 feet AGL
Text:PAAK 290816Z 12013KT 10SM FEW027 OVC048 06/02 A2958 RMK AO1
Temperature: 6.0°C ( 43°F)
Dewpoint: 2.0°C ( 36°F) [RH = 75%]
Pressure (altimeter):29.58 inches Hg (1001.8 mb)
Winds:from the ESE (120 degrees) at 15 MPH (13 knots; 6.7 m/s)
Visibility:10 or more sm (16+ km)
Ceiling:4800 feet AGL
Clouds: few clouds at 2700 feet AGL, overcast cloud deck at 4800 feet AGL
Text:PAAK 290756Z 12012KT 10SM FEW019 SCT033 OVC046 06/02 A2957 RMK AO1
Temperature: 6.0°C ( 43°F)
Dewpoint: 2.0°C ( 36°F) [RH = 75%]
Pressure (altimeter):29.57 inches Hg (1001.4 mb)
Winds:from the ESE (120 degrees) at 14 MPH (12 knots; 6.2 m/s)
Visibility:10 or more sm (16+ km)
Ceiling:4600 feet AGL
Clouds: few clouds at 1900 feet AGL, scattered clouds at 3300 feet AGL, overcast cloud deck at 4600 feet AGL
Text:PAAK 290736Z 12013KT 10SM FEW021 SCT031 OVC046 06/02 A2957 RMK AO1
Temperature: 6.0°C ( 43°F)
Dewpoint: 2.0°C ( 36°F) [RH = 75%]
Pressure (altimeter):29.57 inches Hg (1001.4 mb)
Winds:from the ESE (120 degrees) at 15 MPH (13 knots; 6.7 m/s)
Visibility:10 or more sm (16+ km)
Ceiling:4600 feet AGL
Clouds: few clouds at 2100 feet AGL, scattered clouds at 3100 feet AGL, overcast cloud deck at 4600 feet AGL
Text:PAAK 290716Z 12013KT 10SM FEW041 BKN048 OVC055 06/02 A2957 RMK AO1
Temperature: 6.0°C ( 43°F)
Dewpoint: 2.0°C ( 36°F) [RH = 75%]
Pressure (altimeter):29.57 inches Hg (1001.4 mb)
Winds:from the ESE (120 degrees) at 15 MPH (13 knots; 6.7 m/s)
Visibility:10 or more sm (16+ km)
Ceiling:4800 feet AGL
Clouds: few clouds at 4100 feet AGL, broken clouds at 4800 feet AGL, overcast cloud deck at 5500 feet AGL
Text:PAAK 290656Z 13014KT 10SM BKN046 OVC055 06/02 A2957 RMK AO1
Temperature: 6.0°C ( 43°F)
Dewpoint: 2.0°C ( 36°F) [RH = 75%]
Pressure (altimeter):29.57 inches Hg (1001.4 mb)
Winds:from the SE (130 degrees) at 16 MPH (14 knots; 7.2 m/s)
Visibility:10 or more sm (16+ km)
Ceiling:4600 feet AGL
Clouds: broken clouds at 4600 feet AGL, overcast cloud deck at 5500 feet AGL
Text:PAAK 290636Z 12013KT 10SM OVC044 06/02 A2957 RMK AO1
Temperature: 6.0°C ( 43°F)
Dewpoint: 2.0°C ( 36°F) [RH = 75%]
Pressure (altimeter):29.57 inches Hg (1001.4 mb)
Winds:from the ESE (120 degrees) at 15 MPH (13 knots; 6.7 m/s)
Visibility:10 or more sm (16+ km)
Ceiling:4400 feet AGL
Clouds: overcast cloud deck at 4400 feet AGL
Text:PAAK 290616Z 12014KT 10SM OVC046 06/02 A2957 RMK AO1
Temperature: 6.0°C ( 43°F)
Dewpoint: 2.0°C ( 36°F) [RH = 75%]
Pressure (altimeter):29.57 inches Hg (1001.4 mb)
Winds:from the ESE (120 degrees) at 16 MPH (14 knots; 7.2 m/s)
Visibility:10 or more sm (16+ km)
Ceiling:4600 feet AGL
Clouds: overcast cloud deck at 4600 feet AGL
Text:PAAK 290556Z 13013KT 10SM FEW021 SCT027 OVC046 06/02 A2957 RMK AO1 10090 20060 57007
Temperature: 6.0°C ( 43°F)
Dewpoint: 2.0°C ( 36°F) [RH = 75%]
Pressure (altimeter):29.57 inches Hg (1001.4 mb)
Winds:from the SE (130 degrees) at 15 MPH (13 knots; 6.7 m/s)
Visibility:10 or more sm (16+ km)
Ceiling:4600 feet AGL
Clouds: few clouds at 2100 feet AGL, scattered clouds at 2700 feet AGL, overcast cloud deck at 4600 feet AGL
Text:PAAK 290536Z 12014G18KT 10SM FEW021 BKN025 OVC045 06/02 A2957 RMK AO1
Temperature: 6.0°C ( 43°F)
Dewpoint: 2.0°C ( 36°F) [RH = 75%]
Pressure (altimeter):29.57 inches Hg (1001.4 mb)
Winds:from the ESE (120 degrees) at 16 MPH (14 knots; 7.2 m/s) gusting to 21 MPH (18 knots; 9.3 m/s)
Visibility:10 or more sm (16+ km)
Ceiling:2500 feet AGL
Clouds: few clouds at 2100 feet AGL, broken clouds at 2500 feet AGL, overcast cloud deck at 4500 feet AGL

TAF for:PAAK (Atka Arpt, AK, US)
Text:No data found


Page loaded:  11:31 UTC  |   04:31 AM Pacific  |   05:31 AM Mountain  |   06:31 AM Central  |   07:31 AM Eastern

 

ADVISORIES

FORECASTS

FORECASTS

OBSERVATIONS

USER TOOLS

ABOUT US